Time;durP1;ratioP1;P1;durP2;ratioP2;P2;SDS_P1;SDS_P2;PMS_P1;PMS_P2;Temp;Humidity;BMP_temperature;BMP_pressure;BME280_temperature;BME280_humidity;BME280_pressure;Samples;Min_cycle;Max_cycle;Signal;HPM_P1;HPM_P2
2022/03/18 00:00:28;;;;;;;21.50;10.53;;;7.10;99.90;;;;;;6319201;22;20003;-88
2022/03/18 00:02:54;;;;;;;22.60;12.23;;;7.00;99.90;;;;;;6321835;22;20006;-89
2022/03/18 00:05:22;;;;;;;22.50;11.20;;;7.00;99.90;;;;;;6346613;22;20002;-88
2022/03/18 00:07:48;;;;;;;24.00;11.23;;;7.00;99.90;;;;;;6312666;22;19995;-88
2022/03/18 00:10:20;;;;;;;22.93;11.10;;;7.00;99.90;;;;;;6313039;22;20010;-88
2022/03/18 00:12:52;;;;;;;22.55;10.70;;;7.20;99.90;;;;;;6315350;22;20431;-88
2022/03/18 00:15:23;;;;;;;18.80;9.10;;;7.00;99.90;;;;;;6314981;22;20086;-88
2022/03/18 00:17:49;;;;;;;21.17;10.27;;;7.00;99.90;;;;;;6317412;22;20074;-88
2022/03/18 00:20:15;;;;;;;21.60;9.87;;;7.00;99.90;;;;;;6330223;22;19998;-89
2022/03/18 00:22:42;;;;;;;21.50;10.13;;;7.00;99.90;;;;;;6320533;22;20424;-87
2022/03/18 00:25:12;;;;;;;17.90;10.00;;;7.00;99.90;;;;;;6345358;22;20080;-88
2022/03/18 00:27:39;;;;;;;21.17;9.90;;;7.00;99.90;;;;;;6345460;22;19995;-88
2022/03/18 00:30:06;;;;;;;19.40;9.57;;;7.10;99.90;;;;;;6321315;22;20020;-88
2022/03/18 00:32:32;;;;;;;15.87;8.07;;;7.00;99.90;;;;;;6317877;22;20001;-88
2022/03/18 00:34:59;;;;;;;18.73;9.03;;;6.90;99.90;;;;;;6318084;22;20102;-88
2022/03/18 00:37:25;;;;;;;16.20;8.90;;;7.00;99.90;;;;;;6317801;22;20002;-88
2022/03/18 00:39:51;;;;;;;17.13;9.10;;;7.00;99.90;;;;;;6317703;22;20053;-88
2022/03/18 00:42:16;;;;;;;16.00;8.07;;;7.00;99.90;;;;;;6316287;22;20003;-87
2022/03/18 00:44:42;;;;;;;17.30;9.47;;;7.00;99.90;;;;;;6341352;22;20010;-88
2022/03/18 00:53:04;;;;;;;14.60;8.37;;;7.00;99.90;;;;;;6340624;22;20007;-88
2022/03/18 00:55:40;;;;;;;16.70;7.90;;;7.00;99.90;;;;;;6340172;22;19995;-87
2022/03/18 00:58:08;;;;;;;17.63;8.30;;;7.00;99.90;;;;;;6312496;22;20011;-88
2022/03/18 01:00:34;;;;;;;16.73;7.70;;;7.10;99.90;;;;;;6342118;22;20003;-88
2022/03/18 01:03:00;;;;;;;13.47;8.27;;;6.90;99.90;;;;;;6316145;22;20026;-88
2022/03/18 01:05:25;;;;;;;17.07;7.73;;;7.00;99.90;;;;;;6313377;22;20056;-88
2022/03/18 01:07:51;;;;;;;17.17;8.50;;;6.90;99.90;;;;;;6312782;22;20007;-88
2022/03/18 01:10:17;;;;;;;15.93;8.27;;;6.90;99.90;;;;;;6311671;22;20021;-87
2022/03/18 01:12:43;;;;;;;13.77;6.87;;;7.00;99.90;;;;;;6312693;22;19998;-88
2022/03/18 01:15:09;;;;;;;15.63;7.83;;;7.10;99.90;;;;;;6312033;22;20003;-87
2022/03/18 01:17:35;;;;;;;14.90;8.30;;;7.00;99.90;;;;;;6313178;22;20006;-88
2022/03/18 01:20:04;;;;;;;15.70;7.97;;;6.90;99.90;;;;;;6312962;22;20058;-88
2022/03/18 01:22:30;;;;;;;17.63;8.50;;;6.90;99.90;;;;;;6311922;22;20007;-88
2022/03/18 01:24:56;;;;;;;16.63;8.20;;;6.90;99.90;;;;;;6311727;22;20016;-88
2022/03/18 01:27:21;;;;;;;17.43;8.07;;;6.90;99.90;;;;;;6312181;22;20002;-88
2022/03/18 01:29:47;;;;;;;16.30;8.43;;;7.00;99.90;;;;;;6311680;22;19999;-88
2022/03/18 01:32:13;;;;;;;16.27;7.53;;;6.90;99.90;;;;;;6311744;22;19995;-88
2022/03/18 01:34:38;;;;;;;17.97;8.77;;;6.80;99.90;;;;;;6305592;22;20007;-88
2022/03/18 01:37:04;;;;;;;15.20;7.30;;;6.90;99.90;;;;;;6310402;22;20006;-89
2022/03/18 01:39:30;;;;;;;18.03;8.93;;;6.80;99.90;;;;;;6311137;22;20011;-88
2022/03/18 01:41:56;;;;;;;15.70;6.90;;;6.80;99.90;;;;;;6338643;22;20010;-88
2022/03/18 01:44:21;;;;;;;15.97;7.73;;;6.90;99.90;;;;;;6309752;22;20445;-87
2022/03/18 01:46:48;;;;;;;15.23;7.17;;;6.90;99.90;;;;;;6311807;22;20010;-87
2022/03/18 01:49:16;;;;;;;13.77;7.17;;;6.90;99.90;;;;;;6339901;22;20445;-88
2022/03/18 01:51:49;;;;;;;13.27;7.33;;;6.80;99.90;;;;;;6311149;22;19995;-88
2022/03/18 01:56:59;;;;;;;14.13;7.03;;;6.80;99.90;;;;;;6338991;22;20428;-88
2022/03/18 01:59:25;;;;;;;17.27;8.33;;;6.80;99.90;;;;;;6327708;22;20003;-88
2022/03/18 02:01:51;;;;;;;15.80;7.07;;;6.80;99.90;;;;;;6358875;22;20003;-89
2022/03/18 02:04:17;;;;;;;13.17;6.93;;;6.80;99.90;;;;;;6326092;22;20484;-88
2022/03/18 02:06:43;;;;;;;16.20;7.47;;;6.70;99.90;;;;;;6319100;22;20003;-88
2022/03/18 02:09:09;;;;;;;15.50;7.87;;;6.70;99.90;;;;;;6345739;22;20314;-87
2022/03/18 02:11:35;;;;;;;15.93;7.57;;;6.70;99.90;;;;;;6345683;22;19995;-88
2022/03/18 02:14:00;;;;;;;14.67;8.03;;;6.70;99.90;;;;;;6319407;22;19999;-88
2022/03/18 02:16:26;;;;;;;13.63;7.27;;;6.70;99.90;;;;;;6317528;22;20014;-87
2022/03/18 02:18:52;;;;;;;15.17;7.60;;;6.70;99.90;;;;;;6319196;22;20089;-88
2022/03/18 02:21:23;;;;;;;15.47;7.43;;;6.70;99.90;;;;;;6345869;22;20003;-88
2022/03/18 02:23:48;;;;;;;13.97;6.87;;;6.70;99.90;;;;;;6316873;22;20106;-88
2022/03/18 02:26:15;;;;;;;14.57;7.70;;;6.80;99.90;;;;;;6345845;22;20429;-88
2022/03/18 02:28:41;;;;;;;13.60;7.10;;;6.70;99.90;;;;;;6318324;22;20037;-87
2022/03/18 02:31:07;;;;;;;13.97;6.90;;;6.70;99.90;;;;;;6346842;22;19991;-87
2022/03/18 02:33:33;;;;;;;13.83;7.13;;;6.70;99.90;;;;;;6317050;22;20026;-87
2022/03/18 02:35:58;;;;;;;13.97;7.00;;;6.70;99.90;;;;;;6316781;22;20036;-88
2022/03/18 02:38:24;;;;;;;14.63;7.57;;;6.70;99.90;;;;;;6317844;22;20029;-87
2022/03/18 02:40:50;;;;;;;14.50;6.90;;;6.70;99.90;;;;;;6345036;22;20048;-87
2022/03/18 02:43:18;;;;;;;15.03;7.00;;;6.70;99.90;;;;;;6315957;22;20458;-87
2022/03/18 02:45:44;;;;;;;14.70;7.07;;;6.70;99.90;;;;;;6316467;22;20072;-87
2022/03/18 02:48:09;;;;;;;13.53;7.90;;;6.80;99.90;;;;;;6316581;22;20062;-87
2022/03/18 02:50:36;;;;;;;14.03;7.27;;;6.70;99.90;;;;;;6316544;22;20002;-87
2022/03/18 02:53:02;;;;;;;17.10;7.13;;;6.60;99.90;;;;;;6316151;22;20086;-87
2022/03/18 02:55:29;;;;;;;14.60;7.40;;;6.70;99.90;;;;;;6315323;22;20018;-87
2022/03/18 02:57:55;;;;;;;12.10;6.70;;;6.60;99.90;;;;;;6316837;22;20013;-88
2022/03/18 03:00:25;;;;;;;14.37;6.80;;;6.70;99.90;;;;;;6315247;22;19995;-88
2022/03/18 03:02:51;;;;;;;14.17;7.43;;;6.60;99.90;;;;;;6342809;22;19999;-88
2022/03/18 03:08:01;;;;;;;12.80;6.57;;;6.60;99.90;;;;;;6342443;22;20056;-87
2022/03/18 03:10:42;;;;;;;14.27;6.93;;;6.60;99.90;;;;;;6314308;22;20011;-87
2022/03/18 03:13:11;;;;;;;16.37;7.73;;;6.60;99.90;;;;;;6314863;22;19999;-88
2022/03/18 03:15:38;;;;;;;14.90;7.13;;;6.50;99.90;;;;;;6314244;22;20063;-87
2022/03/18 03:18:05;;;;;;;16.50;7.10;;;6.70;99.90;;;;;;6340862;22;20010;-87
2022/03/18 03:20:32;;;;;;;16.50;7.03;;;6.70;99.90;;;;;;6313978;22;20059;-88
2022/03/18 03:23:01;;;;;;;14.93;7.03;;;6.70;99.90;;;;;;6313156;22;20093;-88
2022/03/18 03:25:27;;;;;;;12.30;6.77;;;6.70;99.90;;;;;;6304483;22;20025;-88
2022/03/18 03:27:56;;;;;;;13.20;6.83;;;6.60;99.90;;;;;;6309935;22;20337;-88
2022/03/18 03:30:22;;;;;;;17.27;7.67;;;6.60;99.90;;;;;;6310477;22;20006;-88
2022/03/18 03:32:49;;;;;;;16.20;7.57;;;6.60;99.90;;;;;;6310554;22;20010;-88
2022/03/18 03:35:15;;;;;;;14.67;7.50;;;6.60;99.90;;;;;;6304929;22;20011;-88
2022/03/18 03:37:41;;;;;;;15.27;7.73;;;6.70;99.90;;;;;;6279501;22;20497;-87
2022/03/18 03:40:08;;;;;;;14.60;7.57;;;6.60;99.90;;;;;;6279217;22;20081;-88
2022/03/18 03:42:34;;;;;;;14.63;7.60;;;6.60;99.90;;;;;;6279151;22;20003;-88
2022/03/18 03:45:00;;;;;;;12.17;6.33;;;6.60;99.90;;;;;;6279109;22;20030;-88
2022/03/18 03:47:25;;;;;;;13.50;6.53;;;6.60;99.90;;;;;;6305744;22;20096;-88
2022/03/18 03:49:51;;;;;;;14.50;6.63;;;6.60;99.90;;;;;;6278596;22;20011;-87
2022/03/18 03:52:18;;;;;;;16.47;7.57;;;6.60;99.90;;;;;;6278797;22;20103;-88
2022/03/18 03:54:43;;;;;;;16.07;7.13;;;6.60;99.90;;;;;;6278067;22;20003;-88
2022/03/18 03:57:09;;;;;;;16.90;7.30;;;6.50;99.90;;;;;;6277937;22;20003;-88
2022/03/18 03:59:36;;;;;;;14.30;6.80;;;6.50;99.90;;;;;;6279007;22;20003;-88
2022/03/18 04:02:05;;;;;;;18.50;7.80;;;6.50;99.90;;;;;;6278950;22;20010;-88
2022/03/18 04:04:34;;;;;;;14.60;7.40;;;6.50;99.90;;;;;;6278417;22;20003;-89
2022/03/18 04:07:00;;;;;;;14.23;7.43;;;6.60;99.90;;;;;;6277983;22;20015;-87
2022/03/18 04:09:26;;;;;;;16.50;7.57;;;6.50;99.90;;;;;;6305884;22;20640;-88
2022/03/18 04:11:52;;;;;;;14.27;7.30;;;6.50;99.90;;;;;;6279035;22;20042;-87
2022/03/18 04:14:17;;;;;;;15.13;7.00;;;6.50;99.90;;;;;;6305596;22;20370;-87
2022/03/18 04:16:44;;;;;;;14.27;8.30;;;6.50;99.90;;;;;;6277948;22;20006;-88
2022/03/18 04:19:11;;;;;;;13.80;7.00;;;6.40;99.90;;;;;;6278718;22;20117;-87
2022/03/18 04:21:38;;;;;;;17.60;7.20;;;6.40;99.90;;;;;;6278851;22;20003;-88
2022/03/18 04:24:03;;;;;;;19.97;7.37;;;6.40;99.90;;;;;;6277770;22;20505;-88
2022/03/18 04:26:30;;;;;;;17.37;8.13;;;6.50;99.90;;;;;;6278352;22;20054;-88
2022/03/18 04:28:55;;;;;;;18.53;8.60;;;6.50;99.90;;;;;;6279046;22;20007;-89
2022/03/18 04:31:22;;;;;;;15.17;6.80;;;6.50;99.90;;;;;;6278255;22;20060;-88
2022/03/18 04:33:48;;;;;;;16.13;7.53;;;6.40;99.90;;;;;;6279036;22;20066;-89
2022/03/18 04:36:14;;;;;;;14.50;7.27;;;6.50;99.90;;;;;;6279059;22;20003;-88
2022/03/18 04:38:42;;;;;;;14.27;6.70;;;6.50;99.90;;;;;;6303174;22;19999;-88
2022/03/18 04:41:08;;;;;;;14.63;8.10;;;6.50;99.90;;;;;;6278253;22;20039;-88
2022/03/18 04:43:34;;;;;;;13.37;6.60;;;6.50;99.90;;;;;;6277271;22;20089;-88
2022/03/18 04:46:01;;;;;;;17.47;7.40;;;6.50;99.90;;;;;;6277790;22;20429;-88
2022/03/18 04:48:26;;;;;;;13.33;6.83;;;6.50;99.90;;;;;;6278885;22;20035;-87
2022/03/18 04:50:52;;;;;;;13.33;6.87;;;6.60;99.90;;;;;;6278798;22;20663;-89
2022/03/18 04:53:18;;;;;;;16.87;7.37;;;6.50;99.90;;;;;;6278157;22;20013;-88
2022/03/18 04:55:44;;;;;;;13.77;6.73;;;6.40;99.90;;;;;;6279143;22;20030;-89
2022/03/18 04:58:10;;;;;;;15.60;7.33;;;6.50;99.90;;;;;;6279238;22;20033;-89
2022/03/18 05:00:36;;;;;;;17.30;7.70;;;6.40;99.90;;;;;;6278355;22;20007;-88
2022/03/18 05:03:02;;;;;;;16.90;7.43;;;6.50;99.90;;;;;;6278662;22;20003;-88
2022/03/18 05:05:28;;;;;;;14.93;7.37;;;6.40;99.90;;;;;;6278178;22;20014;-87
2022/03/18 05:07:54;;;;;;;15.83;7.30;;;6.40;99.90;;;;;;6278162;22;20094;-89
2022/03/18 05:10:20;;;;;;;15.40;7.77;;;6.40;99.90;;;;;;6305804;22;20581;-89
2022/03/18 05:12:45;;;;;;;17.50;7.77;;;6.40;99.90;;;;;;6281084;22;20011;-88
2022/03/18 05:15:12;;;;;;;16.23;7.27;;;6.40;99.90;;;;;;6280104;22;20035;-88
2022/03/18 05:17:39;;;;;;;16.20;8.03;;;6.40;99.90;;;;;;6280834;22;20011;-89
2022/03/18 05:20:06;;;;;;;16.97;7.63;;;6.30;99.90;;;;;;6280945;22;20011;-88
2022/03/18 05:22:34;;;;;;;16.43;7.47;;;6.40;99.90;;;;;;6281692;22;20015;-88
2022/03/18 05:25:00;;;;;;;19.10;7.93;;;6.40;99.90;;;;;;6280033;22;20007;-88
2022/03/18 05:27:26;;;;;;;16.50;7.93;;;6.40;99.90;;;;;;6280735;22;20163;-88
2022/03/18 05:29:51;;;;;;;16.90;7.03;;;6.40;99.90;;;;;;6280723;22;20007;-89
2022/03/18 05:32:19;;;;;;;18.10;8.10;;;6.40;99.90;;;;;;6279924;22;20003;-89
2022/03/18 05:34:45;;;;;;;16.20;7.93;;;6.30;99.90;;;;;;6280072;22;20457;-89
2022/03/18 05:37:11;;;;;;;17.67;8.20;;;6.50;99.90;;;;;;6277432;22;20006;-89
2022/03/18 05:39:38;;;;;;;16.90;7.50;;;6.30;99.90;;;;;;6305235;22;20441;-89
2022/03/18 05:42:04;;;;;;;17.87;8.20;;;6.40;99.90;;;;;;6279287;22;20026;-88
2022/03/18 05:44:30;;;;;;;17.70;7.70;;;6.30;99.90;;;;;;6307064;22;20007;-88
2022/03/18 05:46:56;;;;;;;17.03;8.30;;;6.30;99.90;;;;;;6280555;22;20011;-88
2022/03/18 05:49:22;;;;;;;15.23;7.83;;;6.40;99.90;;;;;;6280287;22;20013;-90
2022/03/18 05:51:47;;;;;;;16.00;7.73;;;6.40;99.90;;;;;;6279598;22;20309;-89
2022/03/18 05:54:14;;;;;;;17.00;8.17;;;6.40;99.90;;;;;;6306954;22;20002;-88
2022/03/18 05:56:54;;;;;;;19.20;8.37;;;6.30;99.90;;;;;;6280273;22;19999;-88
2022/03/18 05:59:25;;;;;;;21.37;8.97;;;6.30;99.90;;;;;;6279757;22;20007;-88
2022/03/18 06:01:53;;;;;;;15.53;8.30;;;6.30;99.90;;;;;;6279597;22;20409;-89
2022/03/18 06:04:20;;;;;;;15.63;7.63;;;6.30;99.90;;;;;;6279211;22;20011;-88
2022/03/18 06:06:47;;;;;;;15.70;7.10;;;6.30;99.90;;;;;;6279551;22;20007;-88
2022/03/18 06:12:02;;;;;;;20.00;8.83;;;6.30;99.90;;;;;;6306793;22;20060;-89
2022/03/18 06:14:29;;;;;;;20.90;9.20;;;6.30;99.90;;;;;;6279569;22;20657;-87
2022/03/18 06:17:04;;;;;;;21.43;8.33;;;6.40;99.90;;;;;;6280379;22;20393;-88
2022/03/18 06:19:31;;;;;;;22.87;9.57;;;6.40;99.90;;;;;;6280583;22;20380;-88
2022/03/18 06:21:58;;;;;;;18.93;8.10;;;6.40;99.90;;;;;;6307526;22;20007;-88
2022/03/18 06:24:24;;;;;;;20.37;8.80;;;6.50;99.90;;;;;;6280190;22;20384;-89
2022/03/18 06:26:50;;;;;;;17.00;8.10;;;6.50;99.90;;;;;;6308205;22;20082;-89
2022/03/18 06:29:21;;;;;;;14.87;6.97;;;6.50;99.90;;;;;;6280271;22;20003;-89
2022/03/18 06:31:48;;;;;;;18.57;7.50;;;6.50;99.90;;;;;;6280427;22;20011;-88
2022/03/18 06:34:14;;;;;;;20.80;9.07;;;6.40;99.90;;;;;;6280042;22;20397;-90
2022/03/18 06:36:40;;;;;;;17.07;8.00;;;6.40;99.90;;;;;;6280593;22;20103;-89
2022/03/18 06:39:07;;;;;;;14.93;7.40;;;6.40;99.90;;;;;;6277359;22;20156;-89
2022/03/18 06:41:36;;;;;;;19.90;9.03;;;6.50;99.90;;;;;;6277772;22;20006;-89
2022/03/18 06:44:03;;;;;;;17.07;7.60;;;6.50;99.90;;;;;;6280052;22;20124;-89
2022/03/18 06:46:28;;;;;;;17.13;8.23;;;6.60;99.90;;;;;;6280544;22;20003;-90
2022/03/18 06:48:54;;;;;;;19.60;9.00;;;6.60;99.90;;;;;;6307838;22;20003;-90
2022/03/18 06:51:26;;;;;;;18.27;9.07;;;6.60;99.90;;;;;;6278113;22;19995;-90
2022/03/18 06:53:52;;;;;;;20.52;9.27;;;6.50;99.90;;;;;;6278858;22;20506;-91
2022/03/18 06:56:18;;;;;;;16.90;9.00;;;6.50;99.90;;;;;;6278844;22;20019;-91
2022/03/18 06:58:45;;;;;;;20.60;9.03;;;6.60;99.90;;;;;;6281827;22;20061;-91
2022/03/18 07:01:11;;;;;;;17.60;8.03;;;6.60;99.90;;;;;;6281241;22;20053;-90
2022/03/18 07:03:38;;;;;;;17.90;9.03;;;6.60;99.90;;;;;;6307831;22;20014;-90
2022/03/18 07:06:06;;;;;;;18.07;8.70;;;6.60;99.90;;;;;;6281293;22;20126;-90
2022/03/18 07:08:35;;;;;;;19.20;8.27;;;6.60;99.90;;;;;;6280123;22;20007;-89
2022/03/18 07:11:02;;;;;;;20.07;9.60;;;6.60;99.90;;;;;;6279964;22;20003;-90
2022/03/18 07:13:28;;;;;;;21.60;10.30;;;6.70;99.90;;;;;;6280712;22;20034;-90
2022/03/18 07:15:54;;;;;;;17.50;8.17;;;6.70;99.90;;;;;;6308102;22;20452;-90
2022/03/18 07:18:20;;;;;;;18.20;9.17;;;6.70;99.90;;;;;;6281242;22;20003;-90
2022/03/18 07:20:45;;;;;;;21.73;10.07;;;6.80;99.90;;;;;;6280815;22;20014;-89
2022/03/18 07:23:16;;;;;;;17.13;9.27;;;6.80;99.90;;;;;;6281116;22;20013;-90
2022/03/18 07:25:44;;;;;;;21.87;9.97;;;6.80;99.90;;;;;;6280766;22;20078;-90
2022/03/18 07:28:12;;;;;;;22.50;10.20;;;6.80;99.90;;;;;;6280366;22;20003;-91
2022/03/18 07:30:39;;;;;;;20.13;8.80;;;6.70;99.90;;;;;;6306464;22;20433;-90
2022/03/18 07:33:05;;;;;;;21.90;9.90;;;6.80;99.90;;;;;;6280267;22;20386;-90
2022/03/18 07:35:32;;;;;;;19.00;9.67;;;6.90;99.90;;;;;;6280102;22;20006;-90
2022/03/18 07:37:58;;;;;;;19.80;10.17;;;6.80;99.90;;;;;;6280017;22;20003;-88
2022/03/18 07:40:24;;;;;;;24.37;10.63;;;6.90;99.90;;;;;;6280243;22;20098;-91
2022/03/18 07:42:55;;;;;;;21.50;10.97;;;6.90;99.90;;;;;;6307712;22;20088;-89
2022/03/18 07:45:27;;;;;;;19.63;10.30;;;7.00;99.90;;;;;;6279787;22;19999;-90
2022/03/18 07:47:54;;;;;;;23.52;10.73;;;7.00;99.90;;;;;;6287973;22;20023;-90
2022/03/18 07:50:22;;;;;;;23.50;11.43;;;7.20;99.90;;;;;;6290962;22;20004;-90
2022/03/18 07:52:51;;;;;;;23.27;10.63;;;7.20;99.90;;;;;;6317238;22;20007;-90
2022/03/18 07:55:22;;;;;;;21.87;10.30;;;7.20;99.90;;;;;;6323077;22;20058;-90
2022/03/18 07:57:49;;;;;;;22.60;11.27;;;7.30;99.90;;;;;;6294170;22;20110;-90
2022/03/18 08:00:16;;;;;;;23.13;11.50;;;7.50;99.90;;;;;;6292360;22;20003;-90
2022/03/18 08:02:43;;;;;;;19.73;10.67;;;7.40;99.90;;;;;;6294811;22;20009;-90
2022/03/18 08:05:10;;;;;;;27.33;11.60;;;7.50;99.90;;;;;;6293530;22;20088;-91
2022/03/18 08:07:36;;;;;;;25.57;11.80;;;7.50;99.90;;;;;;6293583;22;20011;-89
2022/03/18 08:10:03;;;;;;;24.83;11.40;;;7.50;99.90;;;;;;6294317;22;20003;-89
2022/03/18 08:12:29;;;;;;;20.10;10.63;;;7.50;99.90;;;;;;6293548;22;20032;-90
2022/03/18 08:14:57;;;;;;;25.10;10.60;;;7.50;99.90;;;;;;6292986;22;19999;-90
2022/03/18 08:17:23;;;;;;;26.87;13.47;;;7.50;99.90;;;;;;6292886;22;20003;-89
2022/03/18 08:19:52;;;;;;;27.60;12.50;;;7.60;99.90;;;;;;6319358;22;20081;-89
2022/03/18 08:22:22;;;;;;;26.87;12.20;;;7.70;99.90;;;;;;6293003;22;20083;-89
2022/03/18 08:24:48;;;;;;;23.53;12.00;;;7.70;99.90;;;;;;6292945;22;20023;-89
2022/03/18 08:27:14;;;;;;;26.37;11.73;;;7.80;99.90;;;;;;6293031;22;20067;-89
2022/03/18 08:29:40;;;;;;;24.77;12.30;;;7.80;99.90;;;;;;6292179;22;20003;-90
2022/03/18 08:32:07;;;;;;;25.73;11.63;;;7.80;99.90;;;;;;6294131;22;20063;-89
2022/03/18 08:34:33;;;;;;;22.40;10.97;;;7.90;99.90;;;;;;6293133;22;20062;-90
2022/03/18 08:36:59;;;;;;;25.03;12.23;;;8.00;99.90;;;;;;6286076;22;20025;-89
2022/03/18 08:39:24;;;;;;;22.47;12.17;;;8.20;99.90;;;;;;6281585;22;20383;-90
2022/03/18 08:41:51;;;;;;;26.30;12.67;;;8.10;99.90;;;;;;6279771;22;20332;-89
2022/03/18 08:44:20;;;;;;;21.43;10.60;;;8.10;99.90;;;;;;6280511;22;20064;-90
2022/03/18 08:46:48;;;;;;;23.80;11.17;;;8.10;99.90;;;;;;6279702;22;20375;-89
2022/03/18 08:49:17;;;;;;;23.83;11.90;;;8.20;99.90;;;;;;6279907;22;20007;-89
2022/03/18 08:51:43;;;;;;;24.30;12.27;;;8.20;99.90;;;;;;6280147;22;19995;-89
2022/03/18 08:54:09;;;;;;;22.27;11.47;;;8.30;99.90;;;;;;6282136;22;20003;-89
2022/03/18 08:56:35;;;;;;;24.53;11.80;;;8.30;99.90;;;;;;6282471;22;20014;-88
2022/03/18 08:59:06;;;;;;;26.63;10.87;;;8.30;99.90;;;;;;6279058;22;20102;-88
2022/03/18 09:01:35;;;;;;;22.00;11.33;;;8.40;99.90;;;;;;6308719;22;20030;-89
2022/03/18 09:04:00;;;;;;;21.33;11.40;;;8.50;99.90;;;;;;6307615;22;20430;-90
2022/03/18 09:06:26;;;;;;;21.67;11.63;;;8.50;99.90;;;;;;6280279;22;20082;-89
2022/03/18 09:08:52;;;;;;;25.77;11.10;;;8.40;99.90;;;;;;6281013;22;20354;-90
2022/03/18 09:11:18;;;;;;;20.53;11.30;;;8.40;99.90;;;;;;6280343;22;20094;-90
2022/03/18 09:13:44;;;;;;;22.37;10.60;;;8.40;99.90;;;;;;6283001;22;20006;-90
2022/03/18 09:16:11;;;;;;;19.47;10.93;;;8.40;99.90;;;;;;6281000;22;20086;-90
2022/03/18 09:18:37;;;;;;;21.57;11.13;;;8.40;99.90;;;;;;6308683;22;20467;-90
2022/03/18 09:21:03;;;;;;;22.20;10.67;;;8.50;99.90;;;;;;6281937;22;20004;-91
2022/03/18 09:23:29;;;;;;;20.40;9.50;;;8.50;99.90;;;;;;6281716;22;20007;-90
2022/03/18 09:26:10;;;;;;;16.23;9.13;;;8.60;99.90;;;;;;6283977;22;20046;-90
2022/03/18 09:28:37;;;;;;;20.63;9.07;;;8.70;99.90;;;;;;6277742;22;20003;-89
2022/03/18 09:31:03;;;;;;;19.20;9.10;;;8.60;99.90;;;;;;6278843;22;20052;-90
2022/03/18 09:33:29;;;;;;;18.13;8.80;;;8.80;99.90;;;;;;6278024;22;20330;-89
2022/03/18 09:35:54;;;;;;;16.17;8.87;;;8.90;99.90;;;;;;6305325;22;20074;-89
2022/03/18 09:38:20;;;;;;;20.77;8.80;;;8.70;99.90;;;;;;6274664;22;20019;-89
2022/03/18 09:40:48;;;;;;;23.23;10.07;;;8.90;99.90;;;;;;6305207;22;20057;-90
2022/03/18 09:43:14;;;;;;;18.43;8.90;;;8.90;99.90;;;;;;6305445;22;20010;-90
2022/03/18 09:45:40;;;;;;;18.27;8.87;;;8.90;99.90;;;;;;6305992;22;20007;-89
2022/03/18 09:48:09;;;;;;;16.17;8.23;;;8.80;99.90;;;;;;6279319;22;20460;-89
2022/03/18 09:50:36;;;;;;;18.63;9.00;;;8.80;99.90;;;;;;6305092;22;20070;-89
2022/03/18 09:53:03;;;;;;;18.43;8.93;;;8.90;99.90;;;;;;6277489;22;20004;-89
2022/03/18 09:55:30;;;;;;;15.23;7.77;;;8.90;99.90;;;;;;6277348;22;20061;-89
2022/03/18 09:57:57;;;;;;;17.70;8.27;;;8.90;99.90;;;;;;6279966;22;20010;-90
2022/03/18 10:00:22;;;;;;;16.80;8.13;;;9.00;99.90;;;;;;6279945;22;20003;-89
2022/03/18 10:03:11;;;;;;;18.27;8.00;;;8.90;99.90;;;;;;6279675;22;20012;-90
2022/03/18 10:05:59;;;;;;;19.47;9.43;;;9.00;99.90;;;;;;6279782;22;20011;-90
2022/03/18 10:08:50;;;;;;;17.30;7.83;;;8.70;99.90;;;;;;6278160;22;20345;-88
2022/03/18 10:11:28;;;;;;;21.10;8.97;;;8.90;99.90;;;;;;6280297;22;20003;-89
2022/03/18 10:14:00;;;;;;;15.33;8.57;;;9.00;99.90;;;;;;6278961;22;20027;-89
2022/03/18 10:16:32;;;;;;;18.10;9.30;;;9.00;99.90;;;;;;6277962;22;20007;-88
2022/03/18 10:19:11;;;;;;;19.20;9.67;;;9.00;99.90;;;;;;6306225;22;20003;-90
2022/03/18 10:21:58;;;;;;;19.23;9.27;;;9.10;99.90;;;;;;6278159;22;20242;-89
2022/03/18 10:24:33;;;;;;;17.13;7.90;;;9.20;99.90;;;;;;6278811;22;20091;-89
2022/03/18 10:27:13;;;;;;;19.27;9.03;;;9.40;99.90;;;;;;6278965;22;20073;-89
2022/03/18 10:29:44;;;;;;;18.52;9.27;;;9.50;99.90;;;;;;6279652;22;20060;-89
2022/03/18 10:32:18;;;;;;;16.53;8.50;;;9.50;99.90;;;;;;6280242;22;20486;-89
2022/03/18 10:37:45;;;;;;;18.73;9.10;;;9.70;99.90;;;;;;6308882;22;20223;-86
2022/03/18 10:40:18;;;;;;;16.85;8.45;;;9.70;99.90;;;;;;6334568;22;20341;-87
2022/03/18 10:43:06;;;;;;;19.05;9.07;;;9.80;99.90;;;;;;6367277;22;20009;-87
2022/03/18 10:45:35;;;;;;;19.45;7.85;;;10.00;99.90;;;;;;6340030;22;20503;-87
2022/03/18 10:48:14;;;;;;;18.07;8.30;;;10.00;99.90;;;;;;6331169;22;20014;-87
2022/03/18 10:51:04;;;;;;;18.70;9.27;;;10.00;99.90;;;;;;6309418;22;20021;-87
2022/03/18 10:53:41;;;;;;;17.52;8.88;;;10.00;99.90;;;;;;6338598;22;20342;-87
2022/03/18 10:56:09;;;;;;;16.88;8.93;;;10.20;99.90;;;;;;6339717;22;20046;-87
2022/03/18 10:58:40;;;;;;;18.15;9.38;;;10.10;99.90;;;;;;6312344;22;20017;-87
2022/03/18 11:01:14;;;;;;;18.50;9.32;;;10.20;99.90;;;;;;6346575;22;20018;-87
2022/03/18 11:12:47;;;;;;;17.00;8.68;;;10.20;99.90;;;;;;6347114;22;20067;-88
2022/03/18 11:15:15;;;;;;;18.55;8.50;;;10.20;99.90;;;;;;6357850;22;20089;-88
2022/03/18 11:17:55;;;;;;;16.65;8.55;;;10.30;99.90;;;;;;6358006;22;20034;-88
2022/03/18 11:21:11;;;;;;;;;;;;;;;;;;;;;
2022/03/18 11:24:03;;;;;;;17.90;8.35;;;10.30;99.90;;;;;;6353772;22;20286;-88
2022/03/18 11:26:43;;;;;;;19.50;8.88;;;10.50;99.90;;;;;;6320712;22;20007;-88
2022/03/18 11:29:31;;;;;;;17.35;9.68;;;10.70;99.90;;;;;;6322856;22;20003;-88
2022/03/18 11:32:24;;;;;;;16.27;8.45;;;10.80;99.90;;;;;;6321829;22;20066;-89
2022/03/18 11:35:44;;;;;;;16.52;8.85;;;10.90;99.90;;;;;;6313834;22;19998;-88
2022/03/18 11:38:23;;;;;;;16.25;8.18;;;11.10;99.90;;;;;;6311288;22;20006;-89
2022/03/18 11:41:14;;;;;;;19.05;9.23;;;11.10;99.90;;;;;;6311995;22;20064;-88
2022/03/18 11:43:45;;;;;;;15.02;9.10;;;11.20;99.90;;;;;;6311765;22;20009;-88
2022/03/18 11:46:34;;;;;;;18.30;9.23;;;11.30;99.90;;;;;;6313321;22;20030;-89
2022/03/18 11:51:59;;;;;;;20.58;9.63;;;11.10;99.90;;;;;;6187924;23;20497;-89
2022/03/18 11:54:44;;;;;;;17.17;9.43;;;11.20;99.90;;;;;;6313779;22;20021;-89
2022/03/18 11:57:50;;;;;;;19.52;9.25;;;11.30;99.90;;;;;;6348745;22;20518;-87
2022/03/18 12:00:55;;;;;;;17.55;8.82;;;11.30;99.90;;;;;;6344735;22;20011;-89
2022/03/18 12:04:00;;;;;;;18.73;9.82;;;11.40;99.90;;;;;;6334118;22;20006;-89
2022/03/18 12:06:49;;;;;;;17.90;8.85;;;11.40;99.90;;;;;;6317490;22;19999;-89
2022/03/18 12:09:15;;;;;;;19.88;9.95;;;11.30;99.90;;;;;;6344174;22;20030;-88
2022/03/18 12:12:36;;;;;;;;;;;;;;;;;;;;;
2022/03/18 12:16:17;;;;;;;17.83;9.07;;;11.40;99.90;;;;;;6276662;22;20033;-89
2022/03/18 12:18:47;;;;;;;16.67;8.60;;;11.50;99.90;;;;;;6336691;22;20003;-89
2022/03/18 12:21:43;;;;;;;17.15;8.75;;;11.50;99.90;;;;;;6314685;22;20085;-89
2022/03/18 12:24:57;;;;;;;18.27;9.85;;;11.70;99.90;;;;;;6304756;22;20046;-89
2022/03/18 12:27:44;;;;;;;16.90;9.10;;;11.80;99.90;;;;;;6267903;22;20445;-88
2022/03/18 12:31:20;;;;;;;17.38;9.27;;;11.80;99.90;;;;;;6315620;22;20022;-89
2022/03/18 12:40:02;;;;;;;16.92;9.88;;;12.20;99.90;;;;;;6362542;22;20023;-86
2022/03/18 12:42:32;;;;;;;18.83;9.85;;;12.20;99.90;;;;;;6339085;22;20019;-87
2022/03/18 12:45:13;;;;;;;17.48;8.52;;;12.10;99.90;;;;;;6341968;22;20018;-86
2022/03/18 12:47:50;;;;;;;16.80;8.73;;;12.20;99.90;;;;;;6364050;22;20053;-87
2022/03/18 12:50:16;;;;;;;17.25;9.43;;;12.10;99.90;;;;;;6339595;22;20002;-87
2022/03/18 12:52:45;;;;;;;18.08;10.25;;;11.80;99.90;;;;;;6311462;22;20006;-87
2022/03/18 12:55:17;;;;;;;18.33;9.05;;;11.90;99.90;;;;;;6340217;22;20054;-86
2022/03/18 12:57:46;;;;;;;15.35;8.93;;;12.00;99.90;;;;;;6311650;22;19999;-86
2022/03/18 13:00:28;;;;;;;17.42;9.07;;;12.10;99.90;;;;;;6312123;22;19999;-86
2022/03/18 13:02:59;;;;;;;15.77;8.95;;;12.30;99.90;;;;;;6346181;22;20017;-87
2022/03/18 13:05:31;;;;;;;16.92;8.93;;;12.50;99.90;;;;;;6311799;22;20007;-86
2022/03/18 13:08:27;;;;;;;17.13;8.57;;;12.80;99.90;;;;;;6340027;22;20010;-86
2022/03/18 13:18:42;;;;;;;16.23;8.02;;;12.70;99.90;;;;;;6251979;22;20033;-85
2022/03/18 13:25:02;;;;;;;15.35;8.40;;;12.40;99.90;;;;;;6212106;23;20004;-87
2022/03/18 13:28:46;;;;;;;;;;;;;;;;;;;;;
2022/03/18 13:42:25;;;;;;;15.85;7.85;;;12.60;99.90;;;;;;6239996;23;20464;-87
2022/03/18 13:45:27;;;;;;;17.90;8.23;;;12.70;99.90;;;;;;6223807;23;20077;-87
2022/03/18 13:48:13;;;;;;;16.30;7.93;;;12.70;99.90;;;;;;6256898;22;20052;-88
2022/03/18 13:51:06;;;;;;;14.90;7.82;;;12.70;99.90;;;;;;6312850;22;20020;-88
2022/03/18 13:54:16;;;;;;;15.45;7.32;;;12.60;99.90;;;;;;6307090;22;19999;-87
2022/03/18 13:57:24;;;;;;;;;;;;;;;;;;;;;
2022/03/18 14:00:05;;;;;;;14.65;7.22;;;12.70;99.90;;;;;;6337454;22;20077;-88
2022/03/18 14:02:36;;;;;;;13.88;7.55;;;12.70;99.90;;;;;;6337818;22;20394;-88
2022/03/18 14:05:04;;;;;;;12.15;7.13;;;12.60;99.90;;;;;;6310613;22;20002;-88